»·PEaware :: N21522 KSMX-KBFL

N21522 :: KSMX-KBFL

FLIGHT INFORMATION

Flight Status: Arrived
Operator: Privately registered:
United States
More flights under this callsign
Pilot: Jeff S. (17264)
Aircraft: PIPER PA-31/31P NAVAJO CHIEFTAIN
(PA31)
More flights by this aircraft type
Origin: KSMX Santa Maria Pub/Capt Hancock
United States
Destination: KBFL Meadows
United States
More flights between these airports :: More routes between these airports
Route: +
File this flight plan on PilotEdge
Remarks:
Altitude:
(Current/Filed)
0ft
Speed:
(Current/Filed)
0kts
Departed: 10-Jan-18 10:15 PM
Arrived: 10-Jan-18 10:45 PM
Distance/Time
Traveled:
76nm/0:29
Distance/Time
To Go:
Arrived

Flight Plot

Page will automatically refresh every two minutes.


Map Options




Map Legend


Flown Route
Filed Route
Departure Airport
Arrival Airport
Navaid (VOR, NDB)
Fix

Horizontal Profiles

Position Reports

Time Latitude Longitude Heading Altitude Ground
Speed
10-Jan-18 22:13 34.890696 -120.448868 30 265ft 0kts
10-Jan-18 22:14 34.890696 -120.448868 30 265ft 0kts
10-Jan-18 22:15 34.890696 -120.448868 30 265ft 0kts
10-Jan-18 22:16 34.890698 -120.448867 30 265ft 0kts
10-Jan-18 22:17 34.890699 -120.448866 30 265ft 0kts
10-Jan-18 22:18 34.890923 -120.448605 65 265ft 12kts
10-Jan-18 22:19 34.891786 -120.446162 46 265ft 0kts
10-Jan-18 22:20 34.892612 -120.445627 338 265ft 3kts
10-Jan-18 22:21 34.902782 -120.457513 315 731ft 128kts
10-Jan-18 22:22 34.937537 -120.464070 18 2913ft 138kts
10-Jan-18 22:23 34.962980 -120.437270 84 5387ft 130kts
10-Jan-18 22:24 34.965311 -120.397517 84 7971ft 132kts
10-Jan-18 22:25 34.967099 -120.346145 83 9501ft 210kts
10-Jan-18 22:26 34.963728 -120.267466 88 9515ft 245kts
10-Jan-18 22:27 34.968890 -120.188713 43 9510ft 235kts
10-Jan-18 22:28 35.016184 -120.139782 60 9506ft 220kts
10-Jan-18 22:29 35.047115 -120.078813 55 9518ft 211kts
10-Jan-18 22:30 35.073046 -120.032473 55 9459ft 213kts
10-Jan-18 22:31 35.106580 -119.979248 63 9457ft 210kts
10-Jan-18 22:32 35.125409 -119.912444 69 9459ft 206kts
10-Jan-18 22:33 35.143966 -119.852111 69 10378ft 170kts
10-Jan-18 22:34 35.157557 -119.797947 63 11355ft 172kts
10-Jan-18 22:35 35.169386 -119.736838 66 11498ft 201kts
10-Jan-18 22:36 35.182117 -119.669221 67 11498ft 208kts
10-Jan-18 22:37 35.194526 -119.599487 67 11302ft 211kts
10-Jan-18 22:38 35.213465 -119.532169 55 10931ft 212kts
10-Jan-18 22:39 35.244859 -119.477311 40 10650ft 179kts
10-Jan-18 22:40 35.279548 -119.427597 42 8951ft 215kts
10-Jan-18 22:41 35.312328 -119.370233 61 7738ft 203kts
10-Jan-18 22:42 35.340822 -119.312600 59 6231ft 208kts
10-Jan-18 22:43 35.368174 -119.253481 62 5491ft 181kts
10-Jan-18 22:44 35.388452 -119.205309 61 4703ft 147kts
10-Jan-18 22:45 35.404174 -119.164735 68 3641ft 125kts
10-Jan-18 22:46 35.413845 -119.128006 84 2491ft 104kts
10-Jan-18 22:47 35.407885 -119.086955 116 1490ft 148kts
10-Jan-18 22:48 35.388777 -119.049170 96 1687ft 124kts
10-Jan-18 22:49 35.405927 -119.024512 348 1253ft 95kts
10-Jan-18 22:50 35.422677 -119.042754 317 801ft 75kts
10-Jan-18 22:51 35.435702 -119.058140 353 497ft 23kts
10-Jan-18 22:52 35.434649 -119.054780 91 497ft 16kts
10-Jan-18 22:53 35.435618 -119.053108 11 497ft 0kts
10-Jan-18 22:54 35.435618 -119.053108 11 497ft 0kts
10-Jan-18 22:55 35.435618 -119.053108 11 497ft 0kts
10-Jan-18 22:56 35.435618 -119.053108 11 497ft 0kts
10-Jan-18 22:57 35.435618 -119.053108 11 497ft 0kts
10-Jan-18 22:58 35.435618 -119.053108 11 497ft 0kts
10-Jan-18 22:59 35.435618 -119.053108 11 497ft 0kts
10-Jan-18 23:00 35.435618 -119.053108 11 497ft 0kts
10-Jan-18 23:01 35.435618 -119.053108 11 497ft 0kts
10-Jan-18 23:02 35.435618 -119.053108 11 497ft 0kts
10-Jan-18 23:03 35.435618 -119.053108 11 497ft 0kts
10-Jan-18 23:04 35.435618 -119.053108 11 497ft 0kts
10-Jan-18 23:05 35.435618 -119.053108 11 497ft 0kts

Navigation Log

Ident Type
Flight plan parsing failed, navigation log unavailable